Time;durP1;ratioP1;P1;durP2;ratioP2;P2;SDS_P1;SDS_P2;PMS_P1;PMS_P2;Temp;Humidity;BMP_temperature;BMP_pressure;BME280_temperature;BME280_humidity;BME280_pressure;Samples;Min_cycle;Max_cycle;Signal;HPM_P1;HPM_P2
2023/10/29 00:02:16;;;;;;;6.80;2.15;;;;;;;12.21;100.00;98961.44;5016022;28;20482;-76
2023/10/29 00:04:41;;;;;;;5.72;1.75;;;;;;;12.23;100.00;98959.41;5001777;28;20034;-79
2023/10/29 00:07:07;;;;;;;12.20;2.25;;;;;;;12.26;100.00;98946.63;5011018;28;20053;-78
2023/10/29 00:09:32;;;;;;;3.97;1.90;;;;;;;12.27;100.00;98948.28;5011584;28;20034;-79
2023/10/29 00:11:58;;;;;;;5.68;1.80;;;;;;;12.28;100.00;98956.19;5018491;28;20029;-78
2023/10/29 00:14:23;;;;;;;5.57;2.00;;;;;;;12.29;100.00;98938.19;5010869;28;20034;-78
2023/10/29 00:16:49;;;;;;;6.40;1.90;;;;;;;12.30;100.00;98921.00;5010807;28;20050;-78
2023/10/29 00:19:14;;;;;;;4.72;1.98;;;;;;;12.31;100.00;98915.44;5017762;28;20034;-78
2023/10/29 00:21:39;;;;;;;7.43;2.10;;;;;;;12.31;100.00;98901.16;5011316;28;20320;-78
2023/10/29 00:24:05;;;;;;;5.43;1.70;;;;;;;12.31;100.00;98896.59;5011016;28;20505;-77
2023/10/29 00:26:30;;;;;;;7.55;1.98;;;;;;;12.31;100.00;98863.44;5010898;28;20380;-78
2023/10/29 00:28:56;;;;;;;9.00;2.03;;;;;;;12.31;100.00;98875.03;5017984;28;20060;-79
2023/10/29 00:31:21;;;;;;;4.05;1.67;;;;;;;12.31;100.00;98858.88;5010249;28;20117;-78
2023/10/29 00:33:46;;;;;;;5.53;1.80;;;;;;;12.32;100.00;98873.22;5010775;28;20130;-78
2023/10/29 00:36:12;;;;;;;6.28;1.95;;;;;;;12.32;100.00;98873.22;5010447;28;20026;-78
2023/10/29 00:38:37;;;;;;;7.00;2.00;;;;;;;12.33;100.00;98872.19;4996616;28;20029;-78
2023/10/29 00:41:03;;;;;;;6.38;2.20;;;;;;;12.32;100.00;98910.91;5010923;28;20503;-78
2023/10/29 00:43:29;;;;;;;2.33;1.52;;;;;;;12.33;100.00;98912.59;5010888;28;20025;-78
2023/10/29 00:45:55;;;;;;;7.10;2.40;;;;;;;12.35;100.00;98878.25;5018760;28;20029;-78
2023/10/29 00:48:24;;;;;;;11.75;2.22;;;;;;;12.37;100.00;98878.91;5011097;28;20423;-78
2023/10/29 00:50:50;;;;;;;5.28;1.80;;;;;;;12.38;100.00;98880.59;5017587;28;20238;-78
2023/10/29 00:53:15;;;;;;;3.55;1.67;;;;;;;12.39;100.00;98893.88;5017403;28;20033;-77
2023/10/29 00:55:41;;;;;;;4.60;2.00;;;;;;;12.44;100.00;98879.06;5017287;28;20022;-78
2023/10/29 00:58:07;;;;;;;4.28;1.73;;;;;;;12.46;100.00;98872.50;5017533;28;20025;-79
2023/10/29 01:00:32;;;;;;;5.72;1.92;;;;;;;12.47;100.00;98879.56;5010303;28;20527;-78
2023/10/29 01:02:57;;;;;;;7.13;2.17;;;;;;;12.48;100.00;98865.06;5009926;28;20117;-79
2023/10/29 01:05:23;;;;;;;8.77;2.30;;;;;;;12.52;100.00;98865.59;5009795;28;20034;-78
2023/10/29 01:07:49;;;;;;;5.40;1.77;;;;;;;12.55;100.00;98862.53;5010163;28;20062;-77
2023/10/29 01:10:14;;;;;;;8.05;2.20;;;;;;;12.57;100.00;98866.72;5010025;28;20030;-78
2023/10/29 01:12:40;;;;;;;8.57;2.00;;;;;;;12.61;100.00;98858.28;5010406;28;20025;-78
2023/10/29 01:15:05;;;;;;;3.53;1.58;;;;;;;12.60;100.00;98835.88;5023478;28;20136;-78
2023/10/29 01:17:31;;;;;;;3.67;1.95;;;;;;;12.61;100.00;98851.06;5016592;28;20486;-78
2023/10/29 01:19:56;;;;;;;5.00;2.05;;;;;;;12.62;100.00;98830.31;5017160;28;20034;-78
2023/10/29 01:22:22;;;;;;;6.65;2.10;;;;;;;12.60;100.00;98825.09;5016789;28;20091;-77
2023/10/29 01:24:47;;;;;;;5.07;1.75;;;;;;;12.61;100.00;98839.41;5016921;28;20033;-76
2023/10/29 01:27:12;;;;;;;9.77;2.15;;;;;;;12.61;100.00;98851.06;5009772;28;20018;-79
2023/10/29 01:29:38;;;;;;;5.72;1.70;;;;;;;12.61;100.00;98848.34;5000600;28;20029;-76
2023/10/29 01:32:04;;;;;;;7.07;2.30;;;;;;;12.61;100.00;98837.56;5010150;28;20037;-76
2023/10/29 01:34:29;;;;;;;3.95;1.70;;;;;;;12.62;100.00;98833.00;5016715;28;20018;-76
2023/10/29 01:36:54;;;;;;;10.57;2.08;;;;;;;12.62;100.00;98833.00;5009079;28;20033;-76
2023/10/29 01:39:19;;;;;;;5.25;2.10;;;;;;;12.61;100.00;98831.31;5016170;28;20034;-75
2023/10/29 01:41:45;;;;;;;4.28;1.83;;;;;;;12.61;100.00;98826.78;5016864;28;20029;-75
2023/10/29 01:44:10;;;;;;;3.60;1.50;;;;;;;12.61;100.00;98807.06;5016580;28;20018;-76
2023/10/29 01:46:35;;;;;;;6.35;2.03;;;;;;;12.61;100.00;98804.38;5009996;28;20327;-75
2023/10/29 01:49:01;;;;;;;8.68;2.00;;;;;;;12.61;100.00;98809.78;5016446;28;20037;-76
2023/10/29 01:51:26;;;;;;;8.15;2.00;;;;;;;12.62;100.00;98816.84;5008970;28;20109;-76
2023/10/29 01:53:52;;;;;;;4.32;1.48;;;;;;;12.61;100.00;98810.63;5016071;28;20030;-75
2023/10/29 01:56:17;;;;;;;2.22;1.67;;;;;;;12.61;100.00;98815.16;5009097;28;20112;-76
2023/10/29 01:58:42;;;;;;;4.90;1.77;;;;;;;12.61;100.00;98825.94;5016383;28;20707;-75
2023/10/29 02:01:09;;;;;;;5.43;1.85;;;;;;;12.59;100.00;98828.81;5016445;28;20018;-75
2023/10/29 02:03:34;;;;;;;7.22;1.73;;;;;;;12.60;100.00;98830.50;5008128;28;20041;-75
2023/10/29 02:06:00;;;;;;;3.88;1.80;;;;;;;12.60;100.00;98830.50;5009444;28;20091;-75
2023/10/29 02:08:25;;;;;;;4.75;1.77;;;;;;;12.60;100.00;98827.81;5015438;28;20041;-75
2023/10/29 02:10:50;;;;;;;6.00;1.92;;;;;;;12.61;100.00;98836.72;5009012;28;20130;-75
2023/10/29 02:13:16;;;;;;;4.82;1.70;;;;;;;12.61;100.00;98829.50;5009077;28;20112;-76
2023/10/29 02:15:44;;;;;;;6.18;1.98;;;;;;;12.61;100.00;98825.94;5009259;28;20034;-75
2023/10/29 02:18:11;;;;;;;7.53;2.00;;;;;;;12.59;100.00;98829.66;5009555;28;20025;-75
2023/10/29 02:20:37;;;;;;;6.50;2.10;;;;;;;12.59;100.00;98813.50;5008105;28;20045;-75
2023/10/29 02:23:02;;;;;;;4.30;1.80;;;;;;;12.61;100.00;98823.25;5006957;28;20034;-76
2023/10/29 02:25:30;;;;;;;7.03;2.30;;;;;;;12.61;100.00;98834.03;5009689;28;20082;-73
2023/10/29 02:27:55;;;;;;;3.40;1.83;;;;;;;12.59;100.00;98824.28;5011523;28;20045;-74
2023/10/29 02:30:24;;;;;;;4.78;1.85;;;;;;;12.59;100.00;98823.41;5020956;28;20056;-72
2023/10/29 02:32:49;;;;;;;5.38;2.15;;;;;;;12.58;100.00;98832.53;5010868;28;20110;-72
2023/10/29 02:35:14;;;;;;;7.30;2.28;;;;;;;12.56;100.00;98830.03;5017703;28;20102;-73
2023/10/29 02:37:40;;;;;;;12.07;2.13;;;;;;;12.58;100.00;98824.47;5010074;28;20033;-72
2023/10/29 02:40:05;;;;;;;10.68;2.47;;;;;;;12.61;100.00;98815.16;5015234;28;20037;-72
2023/10/29 02:42:31;;;;;;;5.30;1.83;;;;;;;12.62;100.00;98816.84;5011044;28;20030;-72
2023/10/29 02:44:58;;;;;;;6.07;1.85;;;;;;;12.62;100.00;98825.78;5014678;28;20033;-73
2023/10/29 02:47:24;;;;;;;6.78;1.98;;;;;;;12.63;100.00;98813.16;5010895;28;20030;-72
2023/10/29 02:49:49;;;;;;;5.43;1.83;;;;;;;12.65;100.00;98817.34;5010659;28;20093;-72
2023/10/29 02:52:14;;;;;;;5.25;2.10;;;;;;;12.65;100.00;98814.66;5012260;28;20030;-73
2023/10/29 02:54:41;;;;;;;6.80;1.80;;;;;;;12.68;100.00;98821.53;5018889;28;20081;-73
2023/10/29 02:57:06;;;;;;;4.82;1.83;;;;;;;12.69;100.00;98823.22;5014441;28;20022;-72
2023/10/29 02:59:31;;;;;;;6.22;1.95;;;;;;;12.71;100.00;98821.19;5013741;28;20795;-72
2023/10/29 03:01:57;;;;;;;4.82;1.75;;;;;;;12.71;100.00;98816.63;5024723;28;20037;-73
2023/10/29 03:04:22;;;;;;;3.90;1.75;;;;;;;12.74;100.00;98810.06;5025152;28;20061;-71
2023/10/29 03:06:47;;;;;;;2.70;1.20;;;;;;;12.76;100.00;98808.03;5018494;28;20037;-72
2023/10/29 03:09:13;;;;;;;4.00;1.73;;;;;;;12.78;100.00;98814.06;5016891;28;20022;-72
2023/10/29 03:11:38;;;;;;;3.95;1.58;;;;;;;12.79;100.00;98813.06;5012491;28;20037;-73
2023/10/29 03:14:03;;;;;;;5.80;1.70;;;;;;;12.80;100.00;98809.34;5018215;28;20113;-73
2023/10/29 03:16:29;;;;;;;2.80;1.48;;;;;;;12.83;100.00;98825.16;5015625;28;20061;-72
2023/10/29 03:18:54;;;;;;;5.53;1.60;;;;;;;12.85;100.00;98823.13;5017179;28;20140;-73
2023/10/29 03:21:19;;;;;;;4.40;1.73;;;;;;;12.86;100.00;98814.03;5002438;28;20037;-73
2023/10/29 03:23:45;;;;;;;6.88;1.73;;;;;;;12.88;100.00;98811.16;5024668;28;20029;-72
2023/10/29 03:26:10;;;;;;;4.40;1.63;;;;;;;12.88;100.00;98820.06;5024476;28;20394;-72
2023/10/29 03:28:37;;;;;;;6.28;1.90;;;;;;;12.91;100.00;98821.56;5019003;28;20343;-72
2023/10/29 03:31:10;;;;;;;3.83;1.83;;;;;;;12.91;100.00;98825.13;5025604;28;20033;-72
2023/10/29 03:33:36;;;;;;;4.30;1.45;;;;;;;12.92;100.00;98834.88;5026194;28;20065;-73
2023/10/29 03:36:04;;;;;;;3.03;1.50;;;;;;;12.93;100.00;98831.19;5026663;28;20025;-73
2023/10/29 03:38:29;;;;;;;4.95;1.73;;;;;;;12.92;100.00;98834.88;5018202;28;20556;-72
2023/10/29 03:40:55;;;;;;;6.90;1.48;;;;;;;12.93;100.00;98836.56;5024046;28;20022;-72
2023/10/29 03:43:20;;;;;;;3.42;1.50;;;;;;;12.93;100.00;98827.66;5018758;28;20022;-72
2023/10/29 03:45:45;;;;;;;3.97;1.60;;;;;;;12.91;100.00;98826.97;5028628;28;20479;-72
2023/10/29 03:48:14;;;;;;;3.25;1.30;;;;;;;12.90;100.00;98830.69;5008667;28;20022;-73
2023/10/29 03:50:39;;;;;;;1.60;1.10;;;;;;;12.88;100.00;98822.75;5016813;28;20047;-73
2023/10/29 03:53:04;;;;;;;4.03;1.50;;;;;;;12.85;100.00;98820.44;5017216;28;20030;-72
2023/10/29 03:55:30;;;;;;;4.32;1.50;;;;;;;12.84;100.00;98821.47;5017582;28;20475;-72
2023/10/29 03:57:55;;;;;;;4.32;1.33;;;;;;;12.82;100.00;98820.78;5018029;28;20061;-72
2023/10/29 04:00:21;;;;;;;4.32;1.55;;;;;;;12.81;100.00;98819.13;5002985;28;20404;-72
2023/10/29 04:02:48;;;;;;;5.22;1.73;;;;;;;12.81;100.00;98815.56;5017508;28;20061;-72
2023/10/29 04:05:14;;;;;;;4.68;1.80;;;;;;;12.79;100.00;98823.84;5018825;28;20028;-72
2023/10/29 04:07:40;;;;;;;5.07;1.45;;;;;;;12.81;100.00;98823.66;5018839;28;20400;-73
2023/10/29 04:10:05;;;;;;;4.75;1.63;;;;;;;12.82;100.00;98814.56;5007625;28;20028;-73
2023/10/29 04:12:32;;;;;;;5.72;1.45;;;;;;;12.81;100.00;98816.44;5017371;28;20030;-72
2023/10/29 04:14:57;;;;;;;2.90;1.33;;;;;;;12.81;100.00;98838.00;5020581;28;20203;-73
2023/10/29 04:17:23;;;;;;;8.65;1.88;;;;;;;12.82;100.00;98834.25;5012969;28;20297;-72
2023/10/29 04:19:48;;;;;;;2.65;1.35;;;;;;;12.84;100.00;98843.03;5014109;28;20040;-72
2023/10/29 04:22:14;;;;;;;6.75;1.67;;;;;;;12.84;100.00;98842.16;5018228;28;20047;-73
2023/10/29 04:24:39;;;;;;;6.60;1.88;;;;;;;12.84;100.00;98843.03;5011946;28;20018;-73
2023/10/29 04:27:05;;;;;;;4.18;1.80;;;;;;;12.85;100.00;98855.47;5014450;28;20448;-73
2023/10/29 04:29:30;;;;;;;6.57;1.63;;;;;;;12.86;100.00;98845.53;5014232;28;20057;-73
2023/10/29 04:31:56;;;;;;;6.47;1.60;;;;;;;12.88;100.00;98840.81;5013666;28;20121;-72
2023/10/29 04:34:21;;;;;;;8.48;2.08;;;;;;;12.89;100.00;98834.41;5013518;28;20040;-72
2023/10/29 04:36:51;;;;;;;7.30;1.80;;;;;;;12.88;100.00;98836.25;5018009;28;20033;-73
2023/10/29 04:39:20;;;;;;;7.50;1.95;;;;;;;12.88;100.00;98854.28;5020305;28;20052;-73
2023/10/29 04:41:49;;;;;;;5.03;1.80;;;;;;;12.88;100.00;98843.50;5013375;28;20041;-72
2023/10/29 04:44:14;;;;;;;1.67;1.17;;;;;;;12.88;100.00;98857.81;5013046;28;20034;-72
2023/10/29 04:46:39;;;;;;;4.15;1.60;;;;;;;12.87;100.00;98842.66;5010596;28;20034;-73
2023/10/29 04:49:05;;;;;;;9.55;2.08;;;;;;;12.87;100.00;98845.38;5001233;28;20258;-74
2023/10/29 04:51:30;;;;;;;6.30;1.85;;;;;;;12.89;100.00;98842.50;5011062;28;20030;-73
2023/10/29 04:53:55;;;;;;;4.95;2.13;;;;;;;12.89;100.00;98846.03;5010733;28;20622;-73
2023/10/29 04:56:21;;;;;;;6.38;2.08;;;;;;;12.90;100.00;98852.28;5006733;28;20053;-73
2023/10/29 04:58:46;;;;;;;4.00;1.80;;;;;;;12.90;100.00;98846.88;5009820;28;20054;-73
2023/10/29 05:01:13;;;;;;;6.97;2.08;;;;;;;12.90;100.00;98845.00;5017713;28;20398;-73
2023/10/29 05:03:38;;;;;;;7.10;1.83;;;;;;;12.90;100.00;98852.28;5005498;28;20420;-73
2023/10/29 05:06:07;;;;;;;13.98;2.22;;;;;;;12.89;100.00;98846.03;5009562;28;20033;-74
2023/10/29 05:08:32;;;;;;;7.80;1.80;;;;;;;12.88;100.00;98863.19;5009838;28;20041;-73
2023/10/29 05:10:58;;;;;;;5.88;2.28;;;;;;;12.88;100.00;98865.06;5010318;28;20237;-73
2023/10/29 05:13:23;;;;;;;8.40;2.08;;;;;;;12.87;100.00;98879.56;5009527;28;20044;-73
2023/10/29 05:15:48;;;;;;;10.98;2.33;;;;;;;12.86;100.00;98892.22;4998461;28;20049;-72
2023/10/29 05:18:14;;;;;;;10.60;2.38;;;;;;;12.84;100.00;98909.56;5008292;28;20402;-73
2023/10/29 05:20:39;;;;;;;6.38;1.77;;;;;;;12.79;100.00;98893.91;5009679;28;20033;-73
2023/10/29 05:23:04;;;;;;;7.60;2.35;;;;;;;12.74;100.00;98907.09;5007929;28;20388;-74
2023/10/29 05:25:30;;;;;;;4.30;1.45;;;;;;;12.68;100.00;98918.56;5008355;28;20038;-73
2023/10/29 05:27:56;;;;;;;6.63;1.60;;;;;;;12.60;100.00;98922.13;5017065;28;20427;-73
2023/10/29 05:30:22;;;;;;;6.45;1.95;;;;;;;12.45;100.00;98900.44;5010193;28;20041;-74
2023/10/29 05:32:48;;;;;;;5.50;1.30;;;;;;;12.36;100.00;98888.03;5009287;28;20476;-73
2023/10/29 05:35:13;;;;;;;6.95;1.80;;;;;;;12.26;100.00;98885.50;5010216;28;20021;-74
2023/10/29 05:37:39;;;;;;;5.00;1.35;;;;;;;12.15;100.00;98891.25;5009013;28;20029;-74
2023/10/29 05:40:09;;;;;;;4.00;1.40;;;;;;;12.03;100.00;98899.66;5000326;28;20050;-73
2023/10/29 05:42:35;;;;;;;7.28;1.65;;;;;;;11.97;100.00;98905.75;5008622;28;20057;-74
2023/10/29 05:45:00;;;;;;;8.88;2.00;;;;;;;11.89;100.00;98922.72;5009699;28;20053;-73
2023/10/29 05:47:26;;;;;;;3.45;1.48;;;;;;;11.83;100.00;98936.84;5016515;28;20080;-73
2023/10/29 05:49:51;;;;;;;4.65;1.45;;;;;;;11.77;100.00;98925.91;5016595;28;20057;-73
2023/10/29 05:52:16;;;;;;;7.38;2.35;;;;;;;11.75;100.00;98936.00;5008272;28;20029;-72
2023/10/29 05:54:42;;;;;;;5.50;1.23;;;;;;;11.71;100.00;98940.88;5011147;28;20034;-74
2023/10/29 05:57:07;;;;;;;10.48;1.92;;;;;;;11.70;100.00;98942.72;5006558;28;20672;-73
2023/10/29 05:59:33;;;;;;;7.20;1.90;;;;;;;11.68;100.00;98965.41;5016047;28;20057;-73
2023/10/29 06:01:58;;;;;;;7.22;2.00;;;;;;;11.66;100.00;98956.69;5008844;28;20084;-73
2023/10/29 06:04:24;;;;;;;4.88;1.63;;;;;;;11.66;100.00;98975.50;5004703;28;20026;-72
2023/10/29 06:06:50;;;;;;;6.97;1.88;;;;;;;11.65;100.00;98982.72;5016139;28;20101;-73
2023/10/29 06:09:15;;;;;;;9.00;2.10;;;;;;;11.64;100.00;98969.44;5009457;28;20030;-73
2023/10/29 06:11:41;;;;;;;8.65;2.35;;;;;;;11.62;100.00;98975.00;5009433;28;20022;-73
2023/10/29 06:14:07;;;;;;;6.70;1.60;;;;;;;11.61;100.00;98992.16;5008748;28;20026;-73
2023/10/29 06:16:32;;;;;;;6.70;1.90;;;;;;;11.58;100.00;98992.50;5008089;28;20368;-73
2023/10/29 06:18:57;;;;;;;7.18;1.95;;;;;;;11.58;100.00;98997.03;5008634;28;20036;-73
2023/10/29 06:21:23;;;;;;;6.57;1.65;;;;;;;11.58;100.00;99005.09;5009334;28;20033;-73
2023/10/29 06:23:49;;;;;;;8.82;2.67;;;;;;;11.57;100.00;99000.69;5008178;28;20025;-72
2023/10/29 06:26:15;;;;;;;9.20;2.33;;;;;;;11.56;100.00;99001.72;5008240;28;20034;-73
2023/10/29 06:28:40;;;;;;;11.15;1.90;;;;;;;11.54;100.00;98994.66;5008491;28;20163;-73
2023/10/29 06:31:05;;;;;;;12.77;2.67;;;;;;;11.54;100.00;99023.41;5009179;28;20025;-73
2023/10/29 06:33:30;;;;;;;12.38;2.65;;;;;;;11.53;100.00;99013.66;5008946;28;20104;-72
2023/10/29 06:36:00;;;;;;;11.77;2.20;;;;;;;11.53;100.00;99008.28;5008052;28;20475;-73
2023/10/29 06:38:25;;;;;;;15.55;2.70;;;;;;;11.51;100.00;99013.00;5008464;28;20053;-73
2023/10/29 06:40:50;;;;;;;8.50;2.50;;;;;;;11.49;100.00;99013.16;5008918;28;20053;-73
2023/10/29 06:43:15;;;;;;;9.38;2.20;;;;;;;11.49;100.00;99026.59;5015633;28;20029;-73
2023/10/29 06:45:41;;;;;;;12.13;2.53;;;;;;;11.47;100.00;99025.91;5014978;28;20034;-73
2023/10/29 06:48:06;;;;;;;16.10;2.42;;;;;;;11.47;100.00;99033.97;5008780;28;20303;-73
2023/10/29 06:50:32;;;;;;;12.95;2.10;;;;;;;11.45;100.00;99040.53;5009066;28;20081;-73
2023/10/29 06:52:57;;;;;;;7.07;1.85;;;;;;;11.46;100.00;99053.81;5008608;28;20047;-72
2023/10/29 06:55:25;;;;;;;6.60;1.95;;;;;;;11.44;100.00;99050.44;5014452;28;20498;-72
2023/10/29 06:57:50;;;;;;;17.20;2.65;;;;;;;11.44;100.00;99050.44;5007634;28;20083;-73
2023/10/29 07:00:16;;;;;;;11.38;2.33;;;;;;;11.44;100.00;99055.84;5008509;28;20322;-73
2023/10/29 07:02:41;;;;;;;7.15;2.05;;;;;;;11.43;100.00;99064.91;5008652;28;20033;-72
2023/10/29 07:05:07;;;;;;;11.30;2.40;;;;;;;11.42;100.00;99067.75;5008184;28;20025;-73
2023/10/29 07:07:34;;;;;;;12.40;2.70;;;;;;;11.41;100.00;99066.09;5009188;28;20025;-72
2023/10/29 07:10:04;;;;;;;9.93;1.98;;;;;;;11.41;100.00;99074.16;5017168;28;20021;-72
2023/10/29 07:12:29;;;;;;;11.57;2.25;;;;;;;11.41;100.00;99092.97;5010446;28;20038;-72
2023/10/29 07:14:56;;;;;;;16.90;2.50;;;;;;;11.42;100.00;99084.75;5014139;28;20376;-73
2023/10/29 07:17:24;;;;;;;13.48;2.47;;;;;;;11.42;100.00;99084.75;5000152;28;20088;-73
2023/10/29 07:19:51;;;;;;;11.68;2.78;;;;;;;11.44;100.00;99088.09;5010450;28;20451;-72
2023/10/29 07:22:16;;;;;;;6.45;1.80;;;;;;;11.46;100.00;99091.47;5010143;28;20029;-72
2023/10/29 07:24:41;;;;;;;9.77;2.67;;;;;;;11.47;100.00;99087.78;4990938;28;20133;-73
2023/10/29 07:27:07;;;;;;;13.05;2.70;;;;;;;11.49;100.00;99093.88;5008772;28;20052;-72
2023/10/29 07:29:32;;;;;;;13.10;2.60;;;;;;;11.55;100.00;99108.50;5008638;28;20443;-71
2023/10/29 07:31:58;;;;;;;9.80;2.10;;;;;;;11.57;100.00;99117.25;4999820;28;20018;-72
2023/10/29 07:34:23;;;;;;;15.38;2.97;;;;;;;11.60;100.00;99132.25;5008683;28;20021;-72
2023/10/29 07:36:49;;;;;;;8.68;2.47;;;;;;;11.62;100.00;99127.53;5004730;28;20029;-72
2023/10/29 07:39:14;;;;;;;11.45;2.55;;;;;;;11.63;100.00;99122.00;4989444;28;20030;-72
2023/10/29 07:41:39;;;;;;;13.18;2.95;;;;;;;11.66;100.00;99128.91;5009800;28;20603;-72
2023/10/29 07:44:05;;;;;;;12.05;2.63;;;;;;;11.67;100.00;99130.56;5002529;28;20480;-72
2023/10/29 07:46:31;;;;;;;17.45;2.65;;;;;;;11.67;100.00;99125.19;5017130;28;20095;-72
2023/10/29 07:48:57;;;;;;;10.77;2.83;;;;;;;11.71;100.00;99132.78;5013478;28;20394;-72
2023/10/29 07:51:23;;;;;;;15.60;3.28;;;;;;;11.74;100.00;99136.97;5011166;28;20547;-72
2023/10/29 07:53:50;;;;;;;14.05;2.47;;;;;;;11.77;100.00;99130.44;5007051;28;20104;-72
2023/10/29 07:56:15;;;;;;;13.32;2.97;;;;;;;11.79;100.00;99149.97;5011036;28;20030;-73
2023/10/29 07:58:41;;;;;;;10.90;2.90;;;;;;;11.82;100.00;99142.41;4993610;28;20080;-72
2023/10/29 08:01:10;;;;;;;18.90;3.60;;;;;;;11.84;100.00;99147.63;5013856;28;20386;-72
2023/10/29 08:03:36;;;;;;;13.27;2.55;;;;;;;11.87;100.00;99142.78;5012767;28;20025;-72
2023/10/29 08:06:02;;;;;;;15.75;2.85;;;;;;;11.92;100.00;99138.72;5003628;28;20568;-73
2023/10/29 08:08:28;;;;;;;14.52;2.90;;;;;;;11.95;100.00;99141.13;4983402;28;20034;-72
2023/10/29 08:10:53;;;;;;;11.82;2.70;;;;;;;12.00;100.00;99157.66;4998730;28;20026;-73
2023/10/29 08:13:19;;;;;;;11.07;2.75;;;;;;;12.02;100.00;99156.50;5007618;28;20041;-73
2023/10/29 08:15:44;;;;;;;11.68;2.28;;;;;;;12.07;100.00;99164.06;4998346;28;20293;-73
2023/10/29 08:18:10;;;;;;;12.30;2.45;;;;;;;12.11;100.00;99168.13;5014502;28;20487;-73
2023/10/29 08:20:35;;;;;;;11.98;2.25;;;;;;;12.13;100.00;99168.78;5012361;28;20483;-72
2023/10/29 08:23:00;;;;;;;11.90;2.60;;;;;;;12.17;100.00;99172.84;4993026;28;20088;-72
2023/10/29 08:25:26;;;;;;;14.35;2.40;;;;;;;12.20;100.00;99185.97;5009074;28;20037;-72
2023/10/29 08:27:51;;;;;;;13.18;2.65;;;;;;;12.23;100.00;99191.03;4993037;28;20112;-72
2023/10/29 08:30:17;;;;;;;14.45;2.90;;;;;;;12.27;100.00;99179.94;5014866;28;20045;-71
2023/10/29 08:32:43;;;;;;;10.40;2.13;;;;;;;12.30;100.00;99174.22;5010715;28;20034;-73
2023/10/29 08:35:09;;;;;;;18.90;3.30;;;;;;;12.31;100.00;99186.69;5012728;28;20026;-73
2023/10/29 08:37:34;;;;;;;9.98;2.25;;;;;;;12.33;100.00;99177.44;5014089;28;20034;-72
2023/10/29 08:40:00;;;;;;;12.52;2.92;;;;;;;12.37;100.00;99194.97;5001141;28;20031;-72
2023/10/29 08:42:29;;;;;;;15.65;2.60;;;;;;;12.41;100.00;99187.38;4984041;28;20045;-74
2023/10/29 08:44:55;;;;;;;;;;;;;;;12.46;100.00;99193.13;5008642;28;20032;-72
2023/10/29 08:47:25;;;;;;;7.88;2.17;;;;;;;12.47;100.00;99207.44;5005123;28;19924;-72
2023/10/29 08:49:51;;;;;;;18.15;2.53;;;;;;;12.50;100.00;99221.41;4999087;28;20488;-73
2023/10/29 08:52:17;;;;;;;11.40;2.50;;;;;;;12.52;100.00;99232.88;5000569;28;20081;-73
2023/10/29 08:54:43;;;;;;;10.13;2.50;;;;;;;12.54;100.00;99228.16;5010046;28;20034;-73
2023/10/29 08:57:08;;;;;;;13.85;2.45;;;;;;;12.57;100.00;99233.22;4983369;28;20026;-72
2023/10/29 08:59:34;;;;;;;14.10;2.78;;;;;;;12.63;100.00;99238.97;5006567;28;20050;-72
2023/10/29 09:02:00;;;;;;;20.05;2.80;;;;;;;12.66;100.00;99242.16;4994081;28;20034;-72
2023/10/29 09:04:26;;;;;;;12.70;2.10;;;;;;;12.72;100.00;99243.34;5010466;28;20399;-72
2023/10/29 09:06:51;;;;;;;17.15;2.65;;;;;;;12.75;100.00;99254.66;5011558;28;20029;-73
2023/10/29 09:09:16;;;;;;;11.80;2.90;;;;;;;12.79;100.00;99274.03;5012712;28;20062;-73
2023/10/29 09:11:44;;;;;;;8.88;2.17;;;;;;;12.85;100.00;99265.28;5013628;28;20014;-74
2023/10/29 09:14:11;;;;;;;11.73;2.50;;;;;;;12.87;100.00;99263.28;5017505;28;20050;-72
2023/10/29 09:16:36;;;;;;;12.07;2.80;;;;;;;12.88;100.00;99277.59;4998990;28;20034;-76
2023/10/29 09:19:02;;;;;;;11.77;2.65;;;;;;;12.87;99.41;99279.44;5012537;28;20017;-73
2023/10/29 09:21:27;;;;;;;11.55;2.47;;;;;;;12.84;98.74;99282.47;5018173;28;20044;-73
2023/10/29 09:23:53;;;;;;;9.88;2.22;;;;;;;12.84;100.00;99274.38;5015858;28;20025;-73
2023/10/29 09:26:18;;;;;;;13.10;2.45;;;;;;;12.83;97.62;99272.69;5017710;28;20117;-74
2023/10/29 09:28:43;;;;;;;11.65;2.53;;;;;;;12.86;99.48;99280.44;5015758;28;20108;-73
2023/10/29 09:31:16;;;;;;;11.07;2.17;;;;;;;12.90;100.00;99279.13;5016529;28;20053;-73
2023/10/29 09:33:41;;;;;;;7.78;2.28;;;;;;;12.92;98.26;99284.34;5015286;28;20105;-74
2023/10/29 09:36:07;;;;;;;16.35;2.92;;;;;;;12.97;98.33;99279.28;5016106;28;20475;-74
2023/10/29 09:38:33;;;;;;;13.60;2.55;;;;;;;13.02;97.26;99268.00;5023906;28;20013;-73
2023/10/29 09:40:58;;;;;;;14.35;2.85;;;;;;;13.05;98.36;99278.47;5032599;28;20080;-74
2023/10/29 09:43:26;;;;;;;13.35;2.83;;;;;;;13.07;99.24;99284.53;5016765;28;20025;-73
2023/10/29 09:45:53;;;;;;;9.95;2.38;;;;;;;13.07;96.55;99271.03;5017698;28;20061;-75
2023/10/29 09:48:18;;;;;;;6.20;2.15;;;;;;;13.06;95.22;99264.81;5017106;28;20101;-75
2023/10/29 09:50:44;;;;;;;14.05;2.33;;;;;;;13.08;97.36;99287.03;5016150;28;20172;-76
2023/10/29 09:53:15;;;;;;;9.68;2.10;;;;;;;13.08;95.55;99278.13;5016104;28;20056;-76
2023/10/29 09:55:40;;;;;;;13.02;2.58;;;;;;;13.09;96.86;99282.50;5018024;28;20034;-76
2023/10/29 09:58:06;;;;;;;9.18;2.88;;;;;;;13.09;96.26;99275.25;5002117;28;20037;-74
2023/10/29 10:00:32;;;;;;;16.30;2.38;;;;;;;13.08;95.01;99262.78;5015497;28;20049;-74
2023/10/29 10:02:58;;;;;;;11.20;2.25;;;;;;;13.09;94.43;99250.16;4996321;28;20025;-74
2023/10/29 10:05:28;;;;;;;13.23;3.00;;;;;;;13.10;98.54;99255.38;5008725;28;20030;-74
2023/10/29 10:07:54;;;;;;;12.98;2.53;;;;;;;13.10;97.12;99255.38;5016170;28;20027;-74
2023/10/29 10:10:20;;;;;;;10.57;3.10;;;;;;;13.09;98.01;99245.59;4999583;28;20018;-74
2023/10/29 10:12:46;;;;;;;13.82;2.47;;;;;;;13.10;97.77;99257.22;5014393;28;20052;-74
2023/10/29 10:15:13;;;;;;;7.20;2.08;;;;;;;13.10;97.68;99257.22;5014745;28;20034;-74
2023/10/29 10:17:44;;;;;;;10.55;2.42;;;;;;;13.10;96.57;99262.59;5014397;28;20059;-75
2023/10/29 10:20:11;;;;;;;13.75;2.67;;;;;;;13.09;97.45;99250.16;5012291;28;20021;-75
2023/10/29 10:22:36;;;;;;;12.75;2.75;;;;;;;13.07;94.54;99247.59;4997775;28;20086;-73
2023/10/29 10:25:03;;;;;;;16.42;2.92;;;;;;;13.07;97.17;99235.97;5012927;28;20156;-73
2023/10/29 10:27:29;;;;;;;13.88;2.85;;;;;;;13.09;96.60;99237.50;5010474;28;20028;-72
2023/10/29 10:29:54;;;;;;;14.65;2.75;;;;;;;13.10;98.90;99246.41;5014696;28;20077;-74
2023/10/29 10:32:25;;;;;;;12.52;2.78;;;;;;;13.12;96.91;99247.13;5024011;28;20127;-73
2023/10/29 10:34:52;;;;;;;14.38;2.92;;;;;;;13.14;97.11;99250.47;5014386;28;20489;-74
2023/10/29 10:37:17;;;;;;;15.45;3.00;;;;;;;13.17;99.39;99260.91;5011055;28;20036;-76
2023/10/29 10:39:42;;;;;;;13.40;2.28;;;;;;;13.20;99.42;99262.44;5004167;28;20391;-75
2023/10/29 10:42:07;;;;;;;13.40;2.65;;;;;;;13.21;97.91;99275.75;5003358;28;20068;-74
2023/10/29 10:44:35;;;;;;;11.18;2.47;;;;;;;13.25;100.00;99287.91;5006185;28;20040;-75
2023/10/29 10:47:03;;;;;;;13.48;2.05;;;;;;;13.25;98.35;99293.31;5008675;28;20026;-74
2023/10/29 10:49:31;;;;;;;17.27;2.88;;;;;;;13.27;98.85;99291.28;5008749;28;20033;-75
2023/10/29 10:51:59;;;;;;;7.50;2.03;;;;;;;13.27;96.93;99295.84;4996191;28;20029;-74
2023/10/29 10:54:25;;;;;;;12.98;2.78;;;;;;;13.26;97.78;99289.56;5005802;28;20062;-75
2023/10/29 10:56:52;;;;;;;11.77;2.50;;;;;;;13.26;97.17;99286.03;4995720;28;20029;-74
2023/10/29 10:59:19;;;;;;;14.32;2.78;;;;;;;13.25;96.80;99287.03;5015293;28;20104;-74
2023/10/29 11:01:45;;;;;;;13.35;3.05;;;;;;;13.24;97.15;99282.69;5004816;28;20454;-73
2023/10/29 11:04:11;;;;;;;15.65;2.75;;;;;;;13.23;96.54;99276.44;5006101;28;20077;-73
2023/10/29 11:06:38;;;;;;;13.93;3.28;;;;;;;13.22;98.85;99272.06;5021112;28;20018;-72
2023/10/29 11:09:05;;;;;;;15.35;3.13;;;;;;;13.20;96.57;99271.38;4994783;28;20033;-73
2023/10/29 11:11:37;;;;;;;15.38;3.80;;;;;;;13.18;97.09;99281.50;5008519;28;20034;-72
2023/10/29 11:14:14;;;;;;;19.65;4.32;;;;;;;13.18;97.15;99269.88;5000440;28;20092;-72
2023/10/29 11:16:53;;;;;;;15.70;4.00;;;;;;;13.16;98.76;99256.53;5008445;28;20029;-73
2023/10/29 11:19:44;;;;;;;;;;;;;;;13.20;100.00;99241.69;5019255;28;20029;-73